Lincoln, WA (99147)

2:37 AM PDT on August 28, 2014 (GMT -0700)
Davenport, WA | Change Station
CLOSE
Current Station
Personal Weather Station
Location: Davenport, WA
Elevation: 2375 ft
Nearby Weather Stations

Elev 2375 ft 47.65 °N, 118.15 °W | Updated 9 seconds ago

Clear
Clear
58.6 °F
Feels Like 58.6 °F
N
1.7
Wind Variable Wind from SSW

Today
High -- | Low -- °F
--% Chance of Precip.
Yesterday
High -- | Low -- °F
Precip. -- in
6:06 AM 7:42 PM
Waxing Crescent, 7% visible
Pressure 29.91 in
Visibility 10.0 miles
Clouds Clear
Dew Point 48 °F
Humidity 67%
Rainfall 0.00 in
Snow Depth Not available.
UV 0 out of 12
Pollen 7.70 out of 12
Air Quality Not available.
Flu Activity Not available.
METAR KSKA 280858Z AUTO 17005KT 10SM CLR 19/09 A2995 RMK AO2 SLP126 T01860087 56002

More Conditions Fewer Conditions

Pressure 29.91 in
Visibility 10.0 miles
Clouds Clear
Dew Point 48 °F
Humidity 67%
Rainfall 0.00 in
Snow Depth Not available.
UV 0 out of 12
Pollen 7.70 out of 12
Air Quality Not available.
Flu Activity Not available.
METAR KSKA 280858Z AUTO 17005KT 10SM CLR 19/09 A2995 RMK AO2 SLP126 T01860087 56002

More Conditions Fewer Conditions

10-Day Weather Forecast

Almanac

Astronomy

Aug. 28, 2014 Rise Set
Actual Time 6:06 AM PDT 7:42 PM PDT
Civil Twilight 5:34 AM PDT 8:14 PM PDT
Nautical Twilight 4:54 AM PDT 8:54 PM PDT
Astronomical Twilight 4:11 AM PDT 9:36 PM PDT
Moon 9:19 AM PDT 8:51 PM PDT
Length of Visible Light 14h 40m
Length of Day
13h 35m
Tomorrow will be 3m 18s shorter.
Waxing Crescent, 7% of the Moon is Illuminated
Today
Waxing Crescent
Sep 2
First Quarter
Sep 8
Full
Sep 15
Last Quarter
Sep 24
New

Today's Extremes

State Highs State Lows

Community

WunderPhotos

Upload Photos

1,747,918 photos uploaded!

Nearby

Snow Depth

Station Depth Elevation
Moses Mountain 1 in 5300 ft
Quartz Peak 1 in 4700 ft
Bunchgrass Meadow 0 in 5000 ft
Trough 0 in 5300 ft
Grouse Camp 0 in 5380 ft

Earthquake Activity

City Distance Mag. Time & Date
No recent earthquake activity has been reported nearby.
Minimum magnitude displayed is 2.5.

Coastal Water Temperatures

Place Temperature
No Stations Reporting

Nearby Weather Stations